Briefing drone pour Pennautier

Rechercher une autre localisation

Conditions de vol :


Nous sommes le : Dimanche 16 mai 2021
Il est 18:45 UTC (20:45 LT)

Lever de soleil : 03:58 UTC (05:58 LT)
Coucher de soleil : 19:35 UTC (21:35 LT)

Météo

L'essentiel des conditions de vol

VIGILANCE MÉTÉO FRANCE - Aude (11)
Pas de vigilances particulieres
METAR de LFMK
LFMK 161830Z AUTO 28014KT 6000 RA BKN014/// BKN022/// BKN034/// ///TCU 12/11 Q1015

Date d'émission: 16/05/2021
Heure d'émission: 18:30 UTC
Vent: 280° pour 14 KT (26 km/h)
Visibilité horizontale: 6000 m
Plafond :
- Nuages morcelés à 1400ft (427m)
- Nuages morcelés à 2200ft (671m)
- Nuages morcelés à 3400ft (1036m)
Température: 12 °C
Point de rosée: 11 °C
Humidité: 94%
Pression (QNH): 1015 hPa
Conditions: Pluie
TAF de LFMK
LFMK 161800Z 1618/1715 CNL

Conditions prévues :

Heure d'émission : Bulletin éffectué le 16 à 18:00 UTC
Prévision : Valide du 16 a 18:00 UTC au 17 a 15:00 UTC
Nuages : à 0ft (0 m)
WEBCAM POUR PENNAUTIER

Réglementation

Voler en sécurité

CARTES AERONAUTIQUE 1/500.000
CARTES VAC (LFMK)
SUP AIP




Chargement des AIP...
NOTAM (PENNAUTIER + Terrain à proximité / FIR )




Chargement des NOTAMS...
CONTACT PREFECTURE 11


Avertissement : Les données mises à disposition sont indicatives. Oxygène Drone ne pourra être tenu responsable de dégâts causés aux biens et aux personnes.